Time;durP1;ratioP1;P1;durP2;ratioP2;P2;SDS_P1;SDS_P2;PMS_P1;PMS_P2;Temp;Humidity;BMP_temperature;BMP_pressure;BME280_temperature;BME280_humidity;BME280_pressure;Samples;Min_cycle;Max_cycle;Signal;HPM_P1;HPM_P2
2021/09/30 00:00:46;;;;;;;9.60;1.00;;;;;;;;;;5134612;27;20046;-62
2021/09/30 00:03:12;;;;;;;5.50;1.08;;;;;;;;;;5134429;27;20019;-62
2021/09/30 00:05:38;;;;;;;4.28;0.90;;;;;;;;;;5134357;27;20034;-62
2021/09/30 00:08:05;;;;;;;6.65;1.08;;;;;;;;;;5134628;27;20148;-63
2021/09/30 00:10:31;;;;;;;6.13;1.35;;;;;;;;;;5134239;27;20019;-62
2021/09/30 00:13:01;;;;;;;5.13;0.88;;;;;;;;;;5072636;27;20030;-62
2021/09/30 00:15:35;;;;;;;8.00;0.95;;;;;;;;;;5098303;28;20026;-62
2021/09/30 00:32:35;;;;;;;6.80;0.75;;;;;;;;;;5030575;28;20487;-62
2021/09/30 00:34:34;;;;;;;11.10;1.98;;;;;;;;;;5034235;28;20088;-62
2021/09/30 00:50:26;;;;;;;2.60;0.80;;;;;;;;;;5133989;27;20412;-62
2021/09/30 01:18:12;;;;;;;4.00;1.13;;;;;;;;;;5011908;28;20090;-62
2021/09/30 01:25:25;;;;;;;7.65;0.98;;;;;;;;;;5029347;28;20037;-62
2021/09/30 01:33:22;;;;;;;4.43;1.15;;;;;;;;;;5033108;28;20040;-62
2021/09/30 01:46:35;;;;;;;9.88;1.50;;;;;;;;;;5137384;27;20434;-61
2021/09/30 01:52:18;;;;;;;5.78;1.17;;;;;;;;;;5137331;27;20122;-62
2021/09/30 02:59:49;;;;;;;6.50;0.88;;;;;;;;;;5136133;27;20108;-62
2021/09/30 03:02:17;;;;;;;4.80;1.15;;;;;;;;;;5135677;27;20435;-62
2021/09/30 03:04:43;;;;;;;5.93;1.20;;;;;;;;;;5117359;27;20363;-62
2021/09/30 03:07:10;;;;;;;5.88;0.98;;;;;;;;;;5135544;27;20408;-62
2021/09/30 03:09:40;;;;;;;12.05;1.23;;;;;;;;;;5135560;27;20027;-62
2021/09/30 03:12:08;;;;;;;8.00;1.20;;;;;;;;;;5135687;27;20015;-62
2021/09/30 03:14:40;;;;;;;6.20;0.95;;;;;;;;;;5135424;27;20085;-61
2021/09/30 03:17:07;;;;;;;4.85;1.25;;;;;;;;;;5135516;27;20076;-62
2021/09/30 03:19:50;;;;;;;5.18;1.35;;;;;;;;;;5135407;27;20027;-61
2021/09/30 03:22:17;;;;;;;6.05;0.98;;;;;;;;;;5135492;27;20027;-62
2021/09/30 03:24:44;;;;;;;11.15;1.00;;;;;;;;;;5021109;27;20026;-61
2021/09/30 03:27:10;;;;;;;10.07;1.35;;;;;;;;;;5079027;28;20046;-61
2021/09/30 03:29:36;;;;;;;11.27;1.27;;;;;;;;;;5078845;28;20055;-61
2021/09/30 03:32:03;;;;;;;16.10;1.63;;;;;;;;;;5011261;28;20047;-61
2021/09/30 03:34:30;;;;;;;7.60;1.10;;;;;;;;;;5078540;28;20045;-61
2021/09/30 03:36:59;;;;;;;6.10;0.90;;;;;;;;;;5010817;28;20026;-60
2021/09/30 03:39:29;;;;;;;11.30;1.42;;;;;;;;;;5078404;28;20026;-62
2021/09/30 03:41:55;;;;;;;4.53;0.85;;;;;;;;;;5011103;28;20022;-61
2021/09/30 03:44:21;;;;;;;5.25;1.15;;;;;;;;;;5010900;28;20026;-61
2021/09/30 03:46:51;;;;;;;13.70;1.05;;;;;;;;;;5010680;28;20462;-61
2021/09/30 03:49:26;;;;;;;14.50;1.52;;;;;;;;;;5009985;28;20113;-61
2021/09/30 03:54:33;;;;;;;11.70;1.40;;;;;;;;;;5022510;27;20056;-61
2021/09/30 03:57:11;;;;;;;9.75;1.10;;;;;;;;;;5088835;27;20123;-62
2021/09/30 03:59:38;;;;;;;8.73;1.25;;;;;;;;;;5010368;28;20029;-62
2021/09/30 04:02:05;;;;;;;8.27;1.60;;;;;;;;;;5010519;28;20030;-62
2021/09/30 04:04:32;;;;;;;8.90;1.10;;;;;;;;;;5010382;28;20095;-62
2021/09/30 04:07:02;;;;;;;10.40;1.33;;;;;;;;;;5010313;28;20030;-62
2021/09/30 04:09:28;;;;;;;10.23;1.27;;;;;;;;;;5010505;28;20203;-62
2021/09/30 04:11:59;;;;;;;7.53;1.20;;;;;;;;;;5010397;28;20026;-62
2021/09/30 04:14:25;;;;;;;6.53;1.13;;;;;;;;;;5010090;28;20148;-62
2021/09/30 04:16:51;;;;;;;3.33;0.85;;;;;;;;;;5010489;28;20061;-62
2021/09/30 04:19:18;;;;;;;6.43;1.30;;;;;;;;;;5010112;28;20113;-61
2021/09/30 04:21:45;;;;;;;9.82;1.25;;;;;;;;;;5029833;28;20030;-62
2021/09/30 04:24:12;;;;;;;6.70;0.90;;;;;;;;;;5029980;28;20037;-62
2021/09/30 04:26:38;;;;;;;5.15;0.95;;;;;;;;;;5029595;28;20042;-62
2021/09/30 04:29:04;;;;;;;4.18;1.20;;;;;;;;;;5029905;28;20038;-62
2021/09/30 04:31:30;;;;;;;10.75;1.23;;;;;;;;;;5029666;28;20035;-62
2021/09/30 04:33:56;;;;;;;7.53;0.73;;;;;;;;;;5029411;28;20025;-62
2021/09/30 04:36:22;;;;;;;14.32;1.10;;;;;;;;;;5120870;27;20080;-62
2021/09/30 04:38:51;;;;;;;5.65;1.10;;;;;;;;;;5115241;27;20445;-62
2021/09/30 04:41:18;;;;;;;10.82;1.10;;;;;;;;;;5122180;27;20035;-62
2021/09/30 04:43:48;;;;;;;4.75;1.02;;;;;;;;;;5113107;28;20110;-62
2021/09/30 04:46:14;;;;;;;5.82;1.15;;;;;;;;;;5112968;28;20019;-62
2021/09/30 04:48:40;;;;;;;13.23;1.27;;;;;;;;;;5112834;28;20022;-62
2021/09/30 04:51:07;;;;;;;10.35;1.25;;;;;;;;;;5112489;28;20035;-62
2021/09/30 04:53:33;;;;;;;5.53;1.08;;;;;;;;;;5112667;28;20088;-61
2021/09/30 04:55:59;;;;;;;5.80;1.00;;;;;;;;;;5128237;27;20064;-62
2021/09/30 04:58:25;;;;;;;7.57;1.35;;;;;;;;;;5133254;27;20095;-62
2021/09/30 05:00:51;;;;;;;7.70;1.65;;;;;;;;;;5132582;27;20416;-61
2021/09/30 05:03:17;;;;;;;7.03;1.33;;;;;;;;;;5133008;28;20031;-61
2021/09/30 05:05:43;;;;;;;6.28;1.13;;;;;;;;;;5133124;28;20031;-61
2021/09/30 05:08:09;;;;;;;3.20;0.80;;;;;;;;;;5133272;28;20024;-62
2021/09/30 05:10:35;;;;;;;6.63;1.30;;;;;;;;;;5133293;28;20469;-61
2021/09/30 05:13:08;;;;;;;8.00;1.23;;;;;;;;;;5133155;28;20027;-61
2021/09/30 05:15:36;;;;;;;13.57;1.60;;;;;;;;;;5030871;28;20029;-61
2021/09/30 05:18:02;;;;;;;7.90;1.20;;;;;;;;;;5029265;28;20024;-61
2021/09/30 05:20:28;;;;;;;4.35;1.10;;;;;;;;;;5029051;28;20032;-62
2021/09/30 05:22:54;;;;;;;6.38;1.35;;;;;;;;;;5029058;28;20022;-61
2021/09/30 05:25:20;;;;;;;7.38;1.38;;;;;;;;;;5028902;28;20032;-61
2021/09/30 05:27:46;;;;;;;4.65;1.00;;;;;;;;;;5072102;28;20511;-62
2021/09/30 05:30:13;;;;;;;6.72;1.15;;;;;;;;;;5078157;28;20029;-63
2021/09/30 05:32:39;;;;;;;6.68;1.20;;;;;;;;;;5078455;28;20047;-62
2021/09/30 05:35:05;;;;;;;9.48;1.10;;;;;;;;;;5080671;28;20055;-62
2021/09/30 05:37:31;;;;;;;5.47;1.10;;;;;;;;;;5083458;28;20027;-62
2021/09/30 05:39:57;;;;;;;5.30;1.13;;;;;;;;;;5081826;28;20026;-61
2021/09/30 05:42:24;;;;;;;6.18;1.30;;;;;;;;;;5050163;28;20026;-62
2021/09/30 05:44:50;;;;;;;6.15;1.33;;;;;;;;;;5090049;28;20031;-61
2021/09/30 05:47:17;;;;;;;11.55;1.23;;;;;;;;;;5079064;28;20037;-62
2021/09/30 05:49:43;;;;;;;2.72;0.93;;;;;;;;;;5092317;28;20019;-62
2021/09/30 05:52:09;;;;;;;8.95;1.23;;;;;;;;;;5090004;28;20104;-61
2021/09/30 05:54:35;;;;;;;3.97;1.02;;;;;;;;;;5097090;28;20423;-62
2021/09/30 05:57:01;;;;;;;7.05;1.15;;;;;;;;;;5066507;28;20117;-62
2021/09/30 05:59:27;;;;;;;8.65;1.33;;;;;;;;;;5056408;28;20371;-63
2021/09/30 06:12:40;;;;;;;10.65;1.50;;;;;;;;;;5134536;27;20148;-61
2021/09/30 06:15:13;;;;;;;;;;;;;;;;;;5136546;27;20034;-61
2021/09/30 06:17:41;;;;;;;18.95;1.45;;;;;;;;;;5136063;27;19907;-62
2021/09/30 06:20:07;;;;;;;9.52;1.20;;;;;;;;;;5136193;27;20023;-62
2021/09/30 06:22:33;;;;;;;14.15;1.45;;;;;;;;;;5136273;27;20468;-62
2021/09/30 06:24:59;;;;;;;9.98;1.30;;;;;;;;;;5136217;27;20031;-60
2021/09/30 06:27:25;;;;;;;12.40;1.17;;;;;;;;;;5135627;27;20047;-60
2021/09/30 06:29:51;;;;;;;11.48;1.27;;;;;;;;;;5136064;27;20106;-61
2021/09/30 06:32:17;;;;;;;9.23;1.10;;;;;;;;;;5135818;27;20072;-62
2021/09/30 06:34:43;;;;;;;19.45;1.42;;;;;;;;;;5115757;27;20370;-61
2021/09/30 06:37:09;;;;;;;8.20;1.10;;;;;;;;;;5031444;28;20121;-61
2021/09/30 06:39:37;;;;;;;13.57;1.50;;;;;;;;;;5103187;27;20026;-61
2021/09/30 06:42:03;;;;;;;7.68;1.23;;;;;;;;;;5082935;27;20046;-61
2021/09/30 06:44:29;;;;;;;7.45;1.10;;;;;;;;;;5074873;27;20059;-61
2021/09/30 06:46:55;;;;;;;12.98;1.17;;;;;;;;;;5109109;27;20406;-61
2021/09/30 06:49:21;;;;;;;8.63;1.05;;;;;;;;;;5100468;27;20503;-61
2021/09/30 06:51:49;;;;;;;5.10;1.77;;;;;;;;;;5099523;28;20030;-61
2021/09/30 06:54:15;;;;;;;5.03;1.10;;;;;;;;;;5034325;27;20026;-60
2021/09/30 06:56:41;;;;;;;4.22;1.10;;;;;;;;;;5135471;27;20475;-60
2021/09/30 06:59:08;;;;;;;6.20;0.88;;;;;;;;;;5135657;27;20023;-60
2021/09/30 07:01:35;;;;;;;3.63;0.98;;;;;;;;;;5135240;27;20053;-60
2021/09/30 07:04:04;;;;;;;10.10;1.23;;;;;;;;;;5134369;27;20019;-60
2021/09/30 07:06:30;;;;;;;9.60;0.95;;;;;;;;;;5135525;27;20023;-60
2021/09/30 07:08:56;;;;;;;6.53;1.00;;;;;;;;;;5135440;27;20023;-61
2021/09/30 07:11:22;;;;;;;8.55;1.02;;;;;;;;;;5116914;27;20607;-60
2021/09/30 07:13:48;;;;;;;7.63;1.33;;;;;;;;;;5134852;27;20110;-60
2021/09/30 07:16:14;;;;;;;5.00;1.10;;;;;;;;;;5135073;27;20031;-60
2021/09/30 07:18:40;;;;;;;6.68;1.10;;;;;;;;;;5135438;27;20019;-60
2021/09/30 07:21:06;;;;;;;14.52;1.25;;;;;;;;;;5116562;27;20079;-60
2021/09/30 07:23:32;;;;;;;7.15;1.10;;;;;;;;;;5134228;27;20023;-60
2021/09/30 07:25:59;;;;;;;4.93;0.90;;;;;;;;;;5097891;27;20083;-59
2021/09/30 07:28:26;;;;;;;9.27;1.40;;;;;;;;;;5105943;27;20474;-60
2021/09/30 07:30:52;;;;;;;9.60;1.00;;;;;;;;;;5099220;27;20027;-61
2021/09/30 07:33:20;;;;;;;14.38;1.23;;;;;;;;;;5030672;28;20053;-62
2021/09/30 07:35:47;;;;;;;11.68;1.42;;;;;;;;;;5096086;27;20378;-63
2021/09/30 07:38:13;;;;;;;10.88;1.15;;;;;;;;;;5055908;27;20033;-61
2021/09/30 07:40:39;;;;;;;12.90;1.10;;;;;;;;;;5030949;28;20033;-65
2021/09/30 07:43:05;;;;;;;16.48;1.60;;;;;;;;;;5031314;28;20030;-63
2021/09/30 07:45:31;;;;;;;12.20;1.40;;;;;;;;;;5024307;28;20022;-62
2021/09/30 07:47:57;;;;;;;6.68;1.10;;;;;;;;;;5105907;27;20022;-65
2021/09/30 07:50:23;;;;;;;4.82;1.10;;;;;;;;;;5115052;27;20042;-63
2021/09/30 07:52:50;;;;;;;8.73;1.05;;;;;;;;;;5054837;27;20166;-63
2021/09/30 07:55:16;;;;;;;10.05;1.15;;;;;;;;;;5029182;27;20052;-63
2021/09/30 07:57:42;;;;;;;6.45;1.20;;;;;;;;;;5011772;28;20125;-63
2021/09/30 08:00:08;;;;;;;6.88;1.10;;;;;;;;;;5016857;28;20116;-63
2021/09/30 08:02:34;;;;;;;7.10;1.17;;;;;;;;;;5030051;28;20046;-63
2021/09/30 08:05:00;;;;;;;8.35;1.10;;;;;;;;;;5028411;28;20106;-63
2021/09/30 08:07:26;;;;;;;6.18;0.90;;;;;;;;;;5096355;28;20025;-63
2021/09/30 08:09:52;;;;;;;3.67;1.00;;;;;;;;;;5020491;28;20032;-63
2021/09/30 08:12:18;;;;;;;6.45;1.23;;;;;;;;;;5077976;28;20025;-63
2021/09/30 08:14:44;;;;;;;8.15;1.30;;;;;;;;;;5014462;28;20408;-63
2021/09/30 08:17:10;;;;;;;3.75;0.85;;;;;;;;;;5029937;28;20353;-63
2021/09/30 08:19:36;;;;;;;4.10;1.00;;;;;;;;;;5020666;28;20087;-63
2021/09/30 08:22:02;;;;;;;12.68;1.33;;;;;;;;;;5010274;28;20030;-63
2021/09/30 08:24:28;;;;;;;4.35;1.05;;;;;;;;;;5017092;28;20025;-63
2021/09/30 08:26:54;;;;;;;6.80;1.27;;;;;;;;;;5024785;28;20436;-63
2021/09/30 08:29:21;;;;;;;6.68;1.25;;;;;;;;;;5010507;28;20034;-63
2021/09/30 08:31:47;;;;;;;6.68;1.20;;;;;;;;;;5011031;28;20038;-63
2021/09/30 08:34:14;;;;;;;8.88;1.10;;;;;;;;;;5011557;28;20041;-61
2021/09/30 08:36:40;;;;;;;7.53;1.10;;;;;;;;;;5010005;28;20022;-62
2021/09/30 08:39:07;;;;;;;3.67;1.00;;;;;;;;;;5088562;28;20117;-62
2021/09/30 08:41:34;;;;;;;6.00;0.90;;;;;;;;;;5024610;28;20029;-63
2021/09/30 08:44:00;;;;;;;5.13;1.25;;;;;;;;;;5010108;28;20026;-63
2021/09/30 08:46:26;;;;;;;6.28;1.40;;;;;;;;;;5009659;28;20393;-64
2021/09/30 08:48:52;;;;;;;5.10;1.35;;;;;;;;;;5029037;28;20453;-63
2021/09/30 08:51:18;;;;;;;7.05;1.38;;;;;;;;;;5019012;28;20026;-61
2021/09/30 08:53:44;;;;;;;11.60;1.80;;;;;;;;;;5011953;28;20114;-62
2021/09/30 08:56:10;;;;;;;3.50;0.82;;;;;;;;;;5027487;27;20034;-64
2021/09/30 08:58:37;;;;;;;4.22;1.08;;;;;;;;;;5021669;28;20021;-62
2021/09/30 09:01:03;;;;;;;14.15;1.58;;;;;;;;;;5021147;28;20113;-63
2021/09/30 09:03:39;;;;;;;5.88;1.38;;;;;;;;;;5014510;28;20021;-63
2021/09/30 09:06:06;;;;;;;5.75;1.13;;;;;;;;;;5012382;28;20109;-63
2021/09/30 09:08:32;;;;;;;2.95;1.10;;;;;;;;;;5026829;28;20087;-63
2021/09/30 09:10:59;;;;;;;6.68;1.70;;;;;;;;;;5029958;28;20029;-62
2021/09/30 09:13:25;;;;;;;9.73;1.52;;;;;;;;;;5028859;28;20086;-61
2021/09/30 09:15:56;;;;;;;6.43;1.20;;;;;;;;;;5029804;28;20041;-62
2021/09/30 09:18:30;;;;;;;9.02;1.27;;;;;;;;;;5027082;28;20030;-61
2021/09/30 09:21:14;;;;;;;4.30;1.02;;;;;;;;;;5026230;28;20057;-61
2021/09/30 09:23:42;;;;;;;4.35;1.10;;;;;;;;;;5029440;28;20426;-61
2021/09/30 09:26:12;;;;;;;11.35;1.40;;;;;;;;;;5028792;28;20017;-61
2021/09/30 09:28:39;;;;;;;5.70;1.10;;;;;;;;;;5026927;28;20564;-61
2021/09/30 09:31:05;;;;;;;15.23;1.48;;;;;;;;;;5010921;28;20106;-60
2021/09/30 09:33:36;;;;;;;12.85;1.77;;;;;;;;;;5077546;28;20030;-62
2021/09/30 09:36:08;;;;;;;11.07;1.50;;;;;;;;;;5075290;27;20045;-61
2021/09/30 09:38:43;;;;;;;7.78;1.30;;;;;;;;;;5096018;28;20108;-60
2021/09/30 09:41:13;;;;;;;2.78;1.00;;;;;;;;;;5016251;28;20071;-60
2021/09/30 09:43:41;;;;;;;4.75;1.30;;;;;;;;;;5017854;28;20392;-61
2021/09/30 09:46:08;;;;;;;8.63;1.27;;;;;;;;;;5011016;28;20022;-62
2021/09/30 09:48:34;;;;;;;6.47;1.35;;;;;;;;;;5031283;28;20057;-61
2021/09/30 09:51:01;;;;;;;6.28;1.40;;;;;;;;;;5032655;28;20556;-61
2021/09/30 09:53:28;;;;;;;9.10;1.20;;;;;;;;;;5014676;28;20110;-61
2021/09/30 09:56:08;;;;;;;6.28;1.42;;;;;;;;;;5101432;27;20477;-60
2021/09/30 09:58:42;;;;;;;6.18;1.33;;;;;;;;;;5118617;27;20367;-60
2021/09/30 10:01:08;;;;;;;6.22;1.40;;;;;;;;;;5137211;27;20463;-61
2021/09/30 10:03:34;;;;;;;6.75;1.20;;;;;;;;;;5029002;27;20033;-62
2021/09/30 10:06:02;;;;;;;4.47;1.00;;;;;;;;;;5012769;28;20403;-61
2021/09/30 10:08:28;;;;;;;3.40;0.90;;;;;;;;;;5016074;28;20377;-63
2021/09/30 10:10:56;;;;;;;7.82;1.33;;;;;;;;;;5021267;28;20060;-63
2021/09/30 10:13:24;;;;;;;7.45;1.23;;;;;;;;;;5125227;27;20193;-63
2021/09/30 10:15:54;;;;;;;7.28;1.15;;;;;;;;;;5101018;28;20026;-63
2021/09/30 10:18:21;;;;;;;5.82;1.25;;;;;;;;;;5032073;28;20400;-63
2021/09/30 10:20:47;;;;;;;9.88;1.48;;;;;;;;;;5024298;28;20086;-62
2021/09/30 10:23:13;;;;;;;5.45;1.30;;;;;;;;;;5083298;28;20029;-62
2021/09/30 10:25:40;;;;;;;5.72;1.00;;;;;;;;;;5012245;28;20033;-63
2021/09/30 10:28:08;;;;;;;4.10;1.38;;;;;;;;;;5016092;28;20064;-62
2021/09/30 10:30:38;;;;;;;4.47;1.23;;;;;;;;;;5068699;27;20023;-63
2021/09/30 10:33:06;;;;;;;7.07;1.10;;;;;;;;;;5034262;27;20041;-64
2021/09/30 10:35:33;;;;;;;8.85;1.10;;;;;;;;;;5073554;27;20477;-63
2021/09/30 10:38:16;;;;;;;6.78;1.10;;;;;;;;;;5023148;28;20022;-62
2021/09/30 10:41:09;;;;;;;5.68;1.00;;;;;;;;;;5046991;27;20034;-63
2021/09/30 10:43:41;;;;;;;6.80;1.00;;;;;;;;;;5013913;28;20034;-64
2021/09/30 10:46:07;;;;;;;;;;;;;;;;;;5013345;28;20087;-64
2021/09/30 10:48:36;;;;;;;16.75;1.83;;;;;;;;;;5054334;27;19907;-63
2021/09/30 10:51:12;;;;;;;11.95;1.13;;;;;;;;;;5103490;27;20046;-64
2021/09/30 10:53:47;;;;;;;11.82;1.48;;;;;;;;;;5077596;27;20026;-63
2021/09/30 10:56:41;;;;;;;11.48;1.00;;;;;;;;;;5119878;27;20046;-64
2021/09/30 10:59:12;;;;;;;18.02;1.40;;;;;;;;;;5023780;27;20018;-64
2021/09/30 11:01:41;;;;;;;8.50;1.00;;;;;;;;;;5079784;28;20029;-64
2021/09/30 11:04:07;;;;;;;8.63;1.10;;;;;;;;;;5057687;27;20029;-65
2021/09/30 11:06:33;;;;;;;7.50;1.38;;;;;;;;;;5135922;27;20094;-65
2021/09/30 11:09:16;;;;;;;6.03;1.27;;;;;;;;;;5135583;27;20035;-64
2021/09/30 11:11:48;;;;;;;10.13;1.02;;;;;;;;;;5135359;27;20027;-64
2021/09/30 11:14:14;;;;;;;10.80;1.10;;;;;;;;;;5129426;27;20473;-63
2021/09/30 11:16:44;;;;;;;8.05;1.23;;;;;;;;;;5051011;27;20027;-63
2021/09/30 11:19:29;;;;;;;13.10;1.15;;;;;;;;;;5074631;27;20061;-64
2021/09/30 11:21:56;;;;;;;3.85;0.90;;;;;;;;;;5051631;27;20086;-64
2021/09/30 11:24:27;;;;;;;4.47;1.00;;;;;;;;;;5108651;27;20065;-64
2021/09/30 11:26:54;;;;;;;6.47;1.17;;;;;;;;;;5135182;27;20058;-64
2021/09/30 11:29:22;;;;;;;5.15;1.23;;;;;;;;;;5135233;27;20019;-64
2021/09/30 11:31:54;;;;;;;6.13;1.10;;;;;;;;;;5135355;27;20027;-64
2021/09/30 11:34:21;;;;;;;6.50;1.00;;;;;;;;;;5103777;27;20556;-64
2021/09/30 11:36:47;;;;;;;6.32;1.23;;;;;;;;;;5134268;27;20066;-64
2021/09/30 11:39:14;;;;;;;6.03;1.20;;;;;;;;;;5135229;27;20027;-63
2021/09/30 11:41:41;;;;;;;8.27;1.00;;;;;;;;;;5134909;27;20459;-64
2021/09/30 11:44:08;;;;;;;7.20;1.05;;;;;;;;;;5107624;27;20089;-64
2021/09/30 11:46:37;;;;;;;4.40;1.10;;;;;;;;;;5079034;28;20065;-64
2021/09/30 11:49:05;;;;;;;5.28;1.10;;;;;;;;;;5017099;28;20109;-63
2021/09/30 11:51:38;;;;;;;3.50;0.90;;;;;;;;;;5011150;28;20037;-64
2021/09/30 11:54:04;;;;;;;5.65;0.95;;;;;;;;;;5035883;27;20029;-64
2021/09/30 11:56:37;;;;;;;5.22;1.25;;;;;;;;;;5014244;28;20030;-64
2021/09/30 11:59:05;;;;;;;;;;;;;;;;;;5016761;27;20481;-63
2021/09/30 12:01:33;;;;;;;4.50;1.10;;;;;;;;;;5098068;28;19909;-63
2021/09/30 12:03:59;;;;;;;4.45;1.02;;;;;;;;;;5024372;28;20022;-63
2021/09/30 12:06:41;;;;;;;3.47;0.90;;;;;;;;;;5010724;28;20018;-64
2021/09/30 12:09:10;;;;;;;7.38;1.20;;;;;;;;;;5010813;28;20074;-63
2021/09/30 12:11:40;;;;;;;7.57;1.20;;;;;;;;;;5012993;28;20484;-64
2021/09/30 12:14:07;;;;;;;4.88;1.20;;;;;;;;;;5098685;28;20532;-64
2021/09/30 12:16:33;;;;;;;15.52;1.42;;;;;;;;;;5020670;28;20034;-65
2021/09/30 12:19:04;;;;;;;17.10;1.40;;;;;;;;;;5127206;27;20055;-64
2021/09/30 12:21:40;;;;;;;14.38;1.40;;;;;;;;;;5133977;27;20034;-64
2021/09/30 12:24:07;;;;;;;15.52;1.75;;;;;;;;;;5119141;27;20111;-64
2021/09/30 12:26:33;;;;;;;28.17;1.48;;;;;;;;;;5134083;27;20067;-64
2021/09/30 12:28:59;;;;;;;9.88;1.10;;;;;;;;;;5084357;27;20030;-63
2021/09/30 12:31:25;;;;;;;7.72;1.40;;;;;;;;;;5053328;27;20033;-64
2021/09/30 12:33:51;;;;;;;10.73;1.25;;;;;;;;;;5112248;27;20374;-63
2021/09/30 12:36:17;;;;;;;12.95;1.52;;;;;;;;;;5076414;27;20033;-64
2021/09/30 12:39:04;;;;;;;7.93;1.00;;;;;;;;;;5048901;27;20026;-63
2021/09/30 12:41:30;;;;;;;7.05;1.05;;;;;;;;;;5010463;28;20025;-63
2021/09/30 12:44:10;;;;;;;10.70;1.42;;;;;;;;;;5010475;28;20426;-63
2021/09/30 12:46:43;;;;;;;11.32;1.50;;;;;;;;;;5021274;28;20017;-64
2021/09/30 12:49:09;;;;;;;7.00;1.25;;;;;;;;;;5115065;28;20397;-63
2021/09/30 12:51:35;;;;;;;6.68;0.80;;;;;;;;;;5133102;27;20031;-64
2021/09/30 12:54:01;;;;;;;17.38;1.73;;;;;;;;;;5093858;28;20026;-63
2021/09/30 12:56:31;;;;;;;14.25;1.23;;;;;;;;;;5099627;27;20036;-63
2021/09/30 12:59:09;;;;;;;22.08;1.90;;;;;;;;;;5090195;27;20019;-65
2021/09/30 13:01:36;;;;;;;5.95;1.10;;;;;;;;;;5106422;28;20030;-64
2021/09/30 13:04:25;;;;;;;13.27;1.75;;;;;;;;;;5119615;28;20019;-65
2021/09/30 13:06:51;;;;;;;12.60;1.58;;;;;;;;;;5089020;28;20112;-65
2021/09/30 13:09:21;;;;;;;16.15;1.02;;;;;;;;;;5099686;28;20413;-65
2021/09/30 13:11:55;;;;;;;23.38;1.77;;;;;;;;;;5029217;28;20036;-64
2021/09/30 13:14:24;;;;;;;23.50;2.20;;;;;;;;;;5029469;28;20033;-65
2021/09/30 13:16:55;;;;;;;9.52;1.40;;;;;;;;;;5029536;28;20029;-66
2021/09/30 13:19:39;;;;;;;10.68;1.23;;;;;;;;;;5029304;28;20826;-65
2021/09/30 13:22:05;;;;;;;10.07;1.42;;;;;;;;;;5010821;28;20046;-65
2021/09/30 13:24:34;;;;;;;18.55;1.65;;;;;;;;;;5013235;28;20464;-66
2021/09/30 13:27:00;;;;;;;16.40;1.50;;;;;;;;;;5012989;28;20509;-66
2021/09/30 13:29:26;;;;;;;13.15;1.58;;;;;;;;;;5013128;28;20033;-65
2021/09/30 13:31:52;;;;;;;8.45;1.30;;;;;;;;;;5117120;27;20015;-64
2021/09/30 13:34:18;;;;;;;15.05;1.52;;;;;;;;;;5089668;28;20033;-66
2021/09/30 13:36:44;;;;;;;6.88;1.15;;;;;;;;;;5013152;28;20022;-66
2021/09/30 13:39:10;;;;;;;10.93;1.52;;;;;;;;;;5087207;27;20031;-64
2021/09/30 13:41:36;;;;;;;8.68;1.35;;;;;;;;;;5103994;27;20048;-66
2021/09/30 13:44:03;;;;;;;12.45;1.30;;;;;;;;;;5135972;27;20023;-67
2021/09/30 13:46:29;;;;;;;8.30;1.27;;;;;;;;;;5102352;27;20018;-66
2021/09/30 13:48:55;;;;;;;6.90;1.20;;;;;;;;;;5101600;28;20033;-66
2021/09/30 13:51:21;;;;;;;12.15;1.55;;;;;;;;;;5033154;28;20038;-67
2021/09/30 13:53:47;;;;;;;22.98;1.90;;;;;;;;;;5032362;28;20086;-65
2021/09/30 13:56:13;;;;;;;15.68;1.42;;;;;;;;;;5096160;28;20548;-64
2021/09/30 13:58:39;;;;;;;26.88;1.88;;;;;;;;;;5032227;28;20105;-63
2021/09/30 14:01:05;;;;;;;10.23;1.30;;;;;;;;;;5025752;28;20034;-65
2021/09/30 14:03:30;;;;;;;9.45;1.33;;;;;;;;;;5013037;28;20028;-65
2021/09/30 14:05:58;;;;;;;23.95;2.42;;;;;;;;;;5012825;28;20041;-66
2021/09/30 14:08:24;;;;;;;28.10;2.00;;;;;;;;;;5012738;28;20106;-65
2021/09/30 14:10:51;;;;;;;22.92;2.55;;;;;;;;;;5080982;28;20377;-59
2021/09/30 14:13:17;;;;;;;10.00;1.60;;;;;;;;;;5076268;27;20043;-59
2021/09/30 14:15:43;;;;;;;12.88;1.58;;;;;;;;;;5049442;27;20034;-59
2021/09/30 14:18:10;;;;;;;15.38;1.45;;;;;;;;;;5086301;27;20364;-60
2021/09/30 14:20:36;;;;;;;13.07;1.70;;;;;;;;;;5069074;28;20056;-60
2021/09/30 14:23:03;;;;;;;16.02;1.50;;;;;;;;;;5122628;27;20034;-60
2021/09/30 14:25:29;;;;;;;19.10;1.67;;;;;;;;;;5038219;27;20503;-61
2021/09/30 14:27:55;;;;;;;8.05;1.88;;;;;;;;;;5030934;28;20052;-60
2021/09/30 14:30:21;;;;;;;15.38;1.98;;;;;;;;;;5104597;27;20027;-59
2021/09/30 14:32:47;;;;;;;9.75;1.10;;;;;;;;;;5136291;27;20031;-59
2021/09/30 14:35:17;;;;;;;19.10;1.42;;;;;;;;;;5036519;27;20033;-59
2021/09/30 14:37:44;;;;;;;12.15;1.38;;;;;;;;;;5031952;28;20134;-60
2021/09/30 14:40:10;;;;;;;6.35;1.20;;;;;;;;;;5031275;28;20041;-59
2021/09/30 14:42:36;;;;;;;10.77;1.30;;;;;;;;;;5081501;27;20023;-59
2021/09/30 14:45:02;;;;;;;7.30;1.40;;;;;;;;;;5096559;27;20034;-59
2021/09/30 14:47:28;;;;;;;11.43;1.52;;;;;;;;;;5041944;27;20508;-59
2021/09/30 14:49:54;;;;;;;5.10;1.10;;;;;;;;;;5031697;28;20104;-59
2021/09/30 14:52:20;;;;;;;8.48;1.40;;;;;;;;;;5030935;28;20481;-59
2021/09/30 14:54:46;;;;;;;8.27;1.75;;;;;;;;;;5031685;28;20042;-59
2021/09/30 14:57:12;;;;;;;6.95;1.88;;;;;;;;;;5031261;28;20665;-59
2021/09/30 14:59:38;;;;;;;5.28;1.70;;;;;;;;;;5031453;28;20037;-59
2021/09/30 15:02:04;;;;;;;13.00;1.75;;;;;;;;;;5031346;28;20029;-59
2021/09/30 15:04:30;;;;;;;11.85;2.10;;;;;;;;;;5031641;28;20036;-59
2021/09/30 15:06:56;;;;;;;5.32;1.85;;;;;;;;;;5031270;28;20100;-59
2021/09/30 15:09:22;;;;;;;6.00;1.63;;;;;;;;;;5031254;28;20108;-59
2021/09/30 15:11:48;;;;;;;8.43;2.20;;;;;;;;;;5019582;28;20030;-60
2021/09/30 15:14:14;;;;;;;6.70;1.88;;;;;;;;;;5027451;28;20029;-59
2021/09/30 15:17:09;;;;;;;5.05;1.77;;;;;;;;;;5031172;28;20025;-57
2021/09/30 15:19:46;;;;;;;6.38;2.20;;;;;;;;;;5014601;28;20533;-60
2021/09/30 15:22:12;;;;;;;20.33;2.53;;;;;;;;;;5011499;28;20098;-59
2021/09/30 15:24:39;;;;;;;17.88;2.33;;;;;;;;;;5011359;28;20034;-60
2021/09/30 15:27:05;;;;;;;23.08;2.42;;;;;;;;;;5010956;28;20038;-59
2021/09/30 15:29:32;;;;;;;13.18;2.17;;;;;;;;;;5027678;28;20080;-60
2021/09/30 15:31:58;;;;;;;19.70;2.17;;;;;;;;;;5030863;28;20014;-60
2021/09/30 15:34:24;;;;;;;28.52;2.50;;;;;;;;;;5105953;27;20092;-59
2021/09/30 15:36:50;;;;;;;26.98;2.15;;;;;;;;;;5134920;27;20027;-58
2021/09/30 15:39:16;;;;;;;38.88;2.38;;;;;;;;;;5134742;27;20031;-57
2021/09/30 15:41:43;;;;;;;27.58;2.13;;;;;;;;;;5037892;27;20029;-57
2021/09/30 15:44:09;;;;;;;13.65;1.55;;;;;;;;;;5030082;28;20026;-56
2021/09/30 15:46:35;;;;;;;25.35;2.75;;;;;;;;;;5030006;28;20048;-55
2021/09/30 15:49:01;;;;;;;19.20;1.55;;;;;;;;;;5030541;28;20061;-58
2021/09/30 15:51:27;;;;;;;17.17;2.42;;;;;;;;;;5030493;28;20624;-56
2021/09/30 15:53:53;;;;;;;11.38;1.67;;;;;;;;;;5030042;28;20029;-58
2021/09/30 15:56:19;;;;;;;9.02;1.20;;;;;;;;;;5098710;28;20641;-58
2021/09/30 15:58:47;;;;;;;10.15;1.35;;;;;;;;;;5040877;27;20556;-59
2021/09/30 16:01:13;;;;;;;9.82;1.50;;;;;;;;;;5107977;27;20019;-58
2021/09/30 16:03:39;;;;;;;8.20;1.50;;;;;;;;;;5098544;28;20094;-58
2021/09/30 16:06:05;;;;;;;10.90;1.20;;;;;;;;;;5030413;28;20059;-58
2021/09/30 16:08:31;;;;;;;11.20;1.30;;;;;;;;;;5030227;28;20105;-57
2021/09/30 16:10:57;;;;;;;9.25;1.48;;;;;;;;;;5030944;27;20166;-58
2021/09/30 16:13:23;;;;;;;11.75;1.65;;;;;;;;;;5030459;28;20026;-59
2021/09/30 16:15:49;;;;;;;7.93;1.50;;;;;;;;;;5030292;28;20029;-59
2021/09/30 16:18:15;;;;;;;8.15;1.10;;;;;;;;;;5098488;28;20117;-59
2021/09/30 16:20:41;;;;;;;7.53;1.40;;;;;;;;;;5030333;28;20100;-59
2021/09/30 16:23:07;;;;;;;10.32;1.35;;;;;;;;;;5030692;28;20063;-59
2021/09/30 16:25:34;;;;;;;9.35;1.02;;;;;;;;;;5098323;28;20383;-59
2021/09/30 16:28:00;;;;;;;5.35;1.30;;;;;;;;;;5089187;27;20050;-59
2021/09/30 16:30:26;;;;;;;5.82;1.20;;;;;;;;;;5098454;27;20026;-59
2021/09/30 16:32:52;;;;;;;5.85;1.10;;;;;;;;;;5107933;27;20014;-60
2021/09/30 16:35:18;;;;;;;5.43;1.17;;;;;;;;;;5079381;27;20770;-59
2021/09/30 16:37:44;;;;;;;9.02;1.27;;;;;;;;;;5074261;27;20427;-60
2021/09/30 16:40:11;;;;;;;6.85;1.00;;;;;;;;;;5076177;27;20122;-60
2021/09/30 16:42:37;;;;;;;10.20;1.20;;;;;;;;;;5104454;27;20034;-59
2021/09/30 16:45:06;;;;;;;4.13;0.95;;;;;;;;;;5115422;27;20114;-60
2021/09/30 16:47:41;;;;;;;4.35;0.80;;;;;;;;;;5095229;27;20024;-59
2021/09/30 16:50:13;;;;;;;4.85;1.42;;;;;;;;;;5030625;28;20025;-59
2021/09/30 16:52:42;;;;;;;6.13;1.25;;;;;;;;;;5098030;28;20026;-60
2021/09/30 16:55:09;;;;;;;6.68;1.08;;;;;;;;;;5030057;28;20095;-59
2021/09/30 16:57:36;;;;;;;10.90;1.10;;;;;;;;;;5030042;28;20025;-60
2021/09/30 17:00:04;;;;;;;14.95;1.33;;;;;;;;;;5115097;28;20027;-60
2021/09/30 17:02:30;;;;;;;10.55;1.20;;;;;;;;;;5133904;28;20075;-59
2021/09/30 17:04:56;;;;;;;30.88;2.10;;;;;;;;;;5111784;28;20022;-59
2021/09/30 17:07:22;;;;;;;21.35;1.30;;;;;;;;;;5087163;28;20022;-59
2021/09/30 17:09:48;;;;;;;23.90;1.17;;;;;;;;;;5065690;28;20606;-60
2021/09/30 17:12:14;;;;;;;18.85;1.55;;;;;;;;;;5109476;28;20030;-59
2021/09/30 17:14:40;;;;;;;33.80;1.13;;;;;;;;;;5075769;28;20057;-59
2021/09/30 17:17:06;;;;;;;13.70;1.50;;;;;;;;;;5080736;28;20437;-59